Blue Scorpion — IO3479 — position and weather

sailwx.info

Track history (hours):
 
Tides and Currents Weather Stations Pressure Air Temp Water Temp Dewpoint Dewpoint Depression Visibility Wind Speed Wind Dir Waves Ship Positions

Blue Scorpion

Last reported at 2014-Aug-10 08:12 UTC. Time now 2014-Aug-30 02:28 UTC.
Position N 41°05' E 009°34'.
Warning: this ship's position is 19 days out of date.

Length 53 m; draft 3.1 m.

Type: Pleasure craft. MMSI: 247064680.

Date/timePositionNaut miles runAvg speedWind from/ knotsBaromVisibWave heightAir tempDewpointWater temp
2014-Aug-10 08:12N 41°05' E 009°34'4 0.3
2014-Aug-09 17:33N 41°08' E 009°33'4 0.5
2014-Aug-09 10:05N 41°04' E 009°32'4 7.9
2014-Aug-09 09:34N 41°08' E 009°33'  
2014-Aug-02 01:33N 41°15' E 008°33'1613.1
2014-Aug-02 00:18N 41°13' E 008°11'1114.6
2014-Aug-01 23:31N 41°09' E 007°57'1915.7
2014-Aug-01 22:20N 41°03' E 007°33'1316.1
2014-Aug-01 21:33N 40°58' E 007°18'1514.8
2014-Aug-01 20:33N 40°53' E 006°59'1817.5
2014-Aug-01 19:31N 40°48' E 006°36'1414.6
2014-Aug-01 18:32N 40°44' E 006°18'1716.4
2014-Aug-01 17:28N 40°39' E 005°56'141 7.7
2014-Jul-31 23:05N 39°60' E 002°58'815.9
2014-Jul-31 22:33N 39°57' E 002°48'10 9.5
2014-Jul-31 21:29N 39°48' E 002°41'0 0.0
2014-Jul-31 20:31N 39°48' E 002°41'9 9.3
2014-Jul-31 19:33N 39°49' E 002°29'1616.0
2014-Jul-31 18:33N 39°37' E 002°16'1616.0
2014-Jul-31 17:33N 39°24' E 002°04'1716.9
2014-Jul-31 16:34N 39°11' E 001°50'1615.5
2014-Jul-31 15:33N 38°58' E 001°38'1615.8
2014-Jul-31 14:33N 38°47' E 001°24'1 1.2
2014-Jul-31 13:18N 38°46' E 001°26'0 0.0
2014-Jul-31 09:15N 38°46' E 001°26'  
Track history (hours):
 
Tides and Currents Weather Stations Pressure Air Temp Water Temp Dewpoint Dewpoint Depression Visibility Wind Speed Wind Dir Waves Ship Positions

Blue Scorpion

Last reported at 2014-Aug-10 08:12 UTC. Time now 2014-Aug-30 02:28 UTC.
Position N 41°05' E 009°34'.
Warning: this ship's position is 19 days out of date.

Length 53 m; draft 3.1 m.

Type: Pleasure craft. MMSI: 247064680.

Date/timePositionNaut miles runAvg speedWind from/ knotsBaromVisibWave heightAir tempDewpointWater temp
2014-Aug-10 08:12N 41°05' E 009°34'4 0.3
2014-Aug-09 17:33N 41°08' E 009°33'4 0.5
2014-Aug-09 10:05N 41°04' E 009°32'4 7.9
2014-Aug-09 09:34N 41°08' E 009°33'  
2014-Aug-02 01:33N 41°15' E 008°33'1613.1
2014-Aug-02 00:18N 41°13' E 008°11'1114.6
2014-Aug-01 23:31N 41°09' E 007°57'1915.7
2014-Aug-01 22:20N 41°03' E 007°33'1316.1
2014-Aug-01 21:33N 40°58' E 007°18'1514.8
2014-Aug-01 20:33N 40°53' E 006°59'1817.5
2014-Aug-01 19:31N 40°48' E 006°36'1414.6
2014-Aug-01 18:32N 40°44' E 006°18'1716.4
2014-Aug-01 17:28N 40°39' E 005°56'141 7.7
2014-Jul-31 23:05N 39°60' E 002°58'815.9
2014-Jul-31 22:33N 39°57' E 002°48'10 9.5
2014-Jul-31 21:29N 39°48' E 002°41'0 0.0
2014-Jul-31 20:31N 39°48' E 002°41'9 9.3
2014-Jul-31 19:33N 39°49' E 002°29'1616.0
2014-Jul-31 18:33N 39°37' E 002°16'1616.0
2014-Jul-31 17:33N 39°24' E 002°04'1716.9
2014-Jul-31 16:34N 39°11' E 001°50'1615.5
2014-Jul-31 15:33N 38°58' E 001°38'1615.8
2014-Jul-31 14:33N 38°47' E 001°24'1 1.2
2014-Jul-31 13:18N 38°46' E 001°26'0 0.0
2014-Jul-31 09:15N 38°46' E 001°26'  

Dump ship's entire track history